Time;durP1;ratioP1;P1;durP2;ratioP2;P2;SDS_P1;SDS_P2;PMS_P1;PMS_P2;Temp;Humidity;BMP_temperature;BMP_pressure;BME280_temperature;BME280_humidity;BME280_pressure;Samples;Min_cycle;Max_cycle;Signal;HPM_P1;HPM_P2
2023/07/09 00:01:17;;;;;;;14.95;13.68;;;17.80;73.00;;;;;;5050211;28;20041;-73
2023/07/09 00:03:43;;;;;;;15.60;14.13;;;17.70;73.60;;;;;;5050254;28;20052;-73
2023/07/09 00:06:09;;;;;;;14.75;13.65;;;17.60;74.00;;;;;;5050506;28;20039;-72
2023/07/09 00:08:35;;;;;;;14.88;13.90;;;17.70;73.70;;;;;;5049311;28;20067;-72
2023/07/09 00:11:00;;;;;;;16.25;14.68;;;17.70;73.50;;;;;;5049877;28;20064;-73
2023/07/09 00:13:27;;;;;;;16.55;15.15;;;17.60;74.20;;;;;;5046580;28;20047;-72
2023/07/09 00:16:02;;;;;;;15.02;13.73;;;17.60;74.00;;;;;;5048093;28;20044;-73
2023/07/09 00:18:28;;;;;;;15.68;14.20;;;17.60;74.70;;;;;;5049976;28;20029;-72
2023/07/09 00:20:53;;;;;;;17.15;13.60;;;17.60;75.20;;;;;;5049567;28;20777;-72
2023/07/09 00:23:20;;;;;;;14.32;13.07;;;17.60;75.50;;;;;;5048956;28;20076;-72
2023/07/09 00:25:47;;;;;;;14.27;12.98;;;17.40;76.00;;;;;;5049576;28;20037;-73
2023/07/09 00:28:17;;;;;;;14.30;13.15;;;17.30;76.10;;;;;;5050265;28;20045;-72
2023/07/09 00:30:47;;;;;;;13.50;12.52;;;17.30;75.80;;;;;;5045396;28;20045;-72
2023/07/09 00:33:15;;;;;;;14.27;13.18;;;17.20;76.70;;;;;;5050213;28;20029;-73
2023/07/09 00:35:50;;;;;;;14.50;13.07;;;17.30;76.50;;;;;;5049275;28;20052;-72
2023/07/09 00:38:23;;;;;;;14.52;13.05;;;17.30;75.70;;;;;;5049941;28;20029;-73
2023/07/09 00:41:03;;;;;;;13.85;12.90;;;17.30;75.80;;;;;;5032028;28;20029;-72
2023/07/09 00:43:35;;;;;;;14.20;12.98;;;17.30;75.90;;;;;;5040428;28;20043;-73
2023/07/09 00:46:33;;;;;;;14.05;12.90;;;17.20;76.30;;;;;;5046880;28;20029;-72
2023/07/09 00:49:10;;;;;;;13.52;12.40;;;17.10;76.80;;;;;;5013177;28;20061;-72
2023/07/09 00:51:41;;;;;;;15.50;13.82;;;17.20;76.40;;;;;;5051232;28;20406;-72
2023/07/09 00:54:21;;;;;;;14.30;13.05;;;17.10;75.90;;;;;;5051494;28;20030;-72
2023/07/09 00:56:51;;;;;;;13.60;12.48;;;17.20;76.40;;;;;;5049225;28;20031;-71
2023/07/09 00:59:21;;;;;;;13.60;12.60;;;17.10;76.90;;;;;;5049445;28;20052;-72
2023/07/09 01:01:49;;;;;;;;;;;17.00;77.40;;;;;;5047878;28;20140;-72
2023/07/09 01:04:19;;;;;;;13.65;12.75;;;17.00;77.40;;;;;;5048613;28;19983;-72
2023/07/09 01:06:49;;;;;;;13.17;12.13;;;17.00;76.30;;;;;;5051202;28;20033;-72
2023/07/09 01:09:15;;;;;;;;;;;17.00;77.50;;;;;;5030644;28;20037;-72
2023/07/09 01:11:41;;;;;;;13.10;12.10;;;16.90;77.60;;;;;;5048929;28;19971;-72
2023/07/09 01:14:09;;;;;;;13.68;12.57;;;16.80;78.10;;;;;;5047965;28;20495;-72
2023/07/09 01:16:43;;;;;;;14.02;13.02;;;16.70;79.00;;;;;;5045150;28;20399;-72
2023/07/09 01:19:09;;;;;;;12.93;12.02;;;16.70;78.40;;;;;;5063888;28;20029;-73
2023/07/09 01:21:35;;;;;;;14.15;12.95;;;16.70;78.90;;;;;;5049501;28;20025;-72
2023/07/09 01:24:15;;;;;;;14.05;12.60;;;16.80;79.10;;;;;;5050602;28;20033;-72
2023/07/09 01:26:43;;;;;;;14.55;13.35;;;16.70;78.10;;;;;;5047920;28;20045;-72
2023/07/09 01:29:09;;;;;;;14.23;13.02;;;16.90;77.00;;;;;;5048523;28;20108;-72
2023/07/09 01:31:35;;;;;;;14.10;13.07;;;17.00;76.30;;;;;;5045854;28;20116;-71
2023/07/09 01:34:01;;;;;;;14.43;13.10;;;16.90;77.10;;;;;;5048501;28;20804;-72
2023/07/09 01:36:28;;;;;;;14.75;13.10;;;16.80;78.00;;;;;;5045432;28;20116;-72
2023/07/09 01:38:54;;;;;;;14.00;12.88;;;16.70;78.60;;;;;;5043768;28;20494;-73
2023/07/09 01:41:19;;;;;;;13.98;12.85;;;16.60;79.00;;;;;;5048022;28;20029;-72
2023/07/09 01:43:46;;;;;;;14.02;12.98;;;16.60;79.50;;;;;;5048246;28;20036;-73
2023/07/09 01:46:12;;;;;;;14.07;12.60;;;16.50;80.00;;;;;;5048698;28;20478;-72
2023/07/09 01:48:40;;;;;;;13.77;12.75;;;16.50;80.70;;;;;;5030570;28;20049;-72
2023/07/09 01:51:09;;;;;;;14.10;12.82;;;16.40;80.10;;;;;;5048674;28;20036;-72
2023/07/09 01:53:37;;;;;;;13.95;12.85;;;16.40;79.30;;;;;;5047618;28;20036;-73
2023/07/09 01:56:04;;;;;;;14.98;13.77;;;16.50;79.10;;;;;;5047071;28;20156;-73
2023/07/09 01:58:30;;;;;;;14.82;13.20;;;16.60;78.00;;;;;;5030499;28;20036;-72
2023/07/09 02:00:56;;;;;;;15.38;14.07;;;16.70;77.40;;;;;;5048019;28;20041;-72
2023/07/09 02:03:24;;;;;;;13.98;12.77;;;16.80;76.60;;;;;;5029657;28;20096;-72
2023/07/09 02:05:52;;;;;;;19.80;13.25;;;16.70;78.20;;;;;;5047857;28;20037;-73
2023/07/09 02:08:18;;;;;;;13.75;12.75;;;16.50;78.20;;;;;;5047270;28;20957;-72
2023/07/09 02:10:45;;;;;;;13.70;12.52;;;16.40;78.70;;;;;;5048922;28;20060;-73
2023/07/09 02:13:11;;;;;;;14.02;13.02;;;16.30;79.40;;;;;;5033035;28;20037;-73
2023/07/09 02:15:36;;;;;;;14.30;13.05;;;16.40;78.90;;;;;;5051748;28;20059;-73
2023/07/09 02:18:02;;;;;;;14.25;13.25;;;16.40;78.90;;;;;;5052353;28;20036;-73
2023/07/09 02:20:28;;;;;;;14.75;13.45;;;16.40;78.40;;;;;;5048634;28;20087;-73
2023/07/09 02:22:54;;;;;;;14.85;13.35;;;16.40;78.40;;;;;;5066822;28;20424;-73
2023/07/09 02:25:19;;;;;;;14.40;13.27;;;16.30;78.80;;;;;;5050956;28;20716;-73
2023/07/09 02:27:45;;;;;;;14.15;13.02;;;16.40;78.60;;;;;;5051899;28;20087;-73
2023/07/09 02:30:11;;;;;;;14.20;13.00;;;16.40;79.60;;;;;;5051505;28;20410;-73
2023/07/09 02:32:37;;;;;;;14.02;12.88;;;16.30;79.20;;;;;;5050770;28;20513;-72
2023/07/09 02:35:04;;;;;;;14.02;12.93;;;16.10;79.50;;;;;;5053045;28;20029;-73
2023/07/09 02:37:30;;;;;;;13.77;12.77;;;16.10;79.40;;;;;;5051602;28;20119;-73
2023/07/09 02:39:56;;;;;;;14.20;13.10;;;16.10;79.40;;;;;;5051890;28;20035;-73
2023/07/09 02:42:22;;;;;;;14.05;12.75;;;16.20;79.40;;;;;;5051281;28;20041;-73
2023/07/09 02:44:48;;;;;;;13.70;12.70;;;16.10;79.50;;;;;;5051565;28;20574;-73
2023/07/09 02:47:15;;;;;;;14.38;13.20;;;16.20;79.30;;;;;;5051543;28;20037;-73
2023/07/09 02:49:41;;;;;;;13.45;12.35;;;16.20;79.50;;;;;;5054032;28;20036;-73
2023/07/09 02:52:07;;;;;;;14.18;12.85;;;16.10;80.30;;;;;;5051666;28;20083;-73
2023/07/09 02:54:32;;;;;;;14.52;13.05;;;16.00;80.30;;;;;;5033267;28;20521;-73
2023/07/09 02:56:58;;;;;;;19.58;13.07;;;16.00;80.20;;;;;;5049902;28;20021;-73
2023/07/09 02:59:25;;;;;;;14.32;13.23;;;16.00;80.10;;;;;;5050923;28;20064;-73
2023/07/09 03:01:52;;;;;;;14.73;13.57;;;16.10;79.00;;;;;;5033446;28;20029;-73
2023/07/09 03:04:20;;;;;;;14.43;13.32;;;16.30;77.90;;;;;;5051500;28;20037;-73
2023/07/09 03:06:46;;;;;;;14.25;12.93;;;16.40;77.30;;;;;;5054099;28;20040;-73
2023/07/09 03:09:11;;;;;;;14.55;13.10;;;16.40;76.90;;;;;;5050843;28;20040;-73
2023/07/09 03:11:37;;;;;;;14.32;12.98;;;16.20;77.60;;;;;;5032909;28;20028;-74
2023/07/09 03:14:04;;;;;;;13.95;12.50;;;16.20;78.30;;;;;;5050570;28;20423;-73
2023/07/09 03:16:33;;;;;;;14.38;13.07;;;16.10;78.90;;;;;;5050898;28;20033;-73
2023/07/09 03:19:00;;;;;;;13.55;12.25;;;16.00;79.80;;;;;;5051726;28;20021;-73
2023/07/09 03:21:27;;;;;;;13.63;12.50;;;15.90;80.40;;;;;;5065634;28;20064;-73
2023/07/09 03:23:53;;;;;;;14.10;12.70;;;15.70;81.70;;;;;;5048730;28;20037;-73
2023/07/09 03:26:19;;;;;;;13.70;12.45;;;15.60;82.00;;;;;;5050386;28;20047;-73
2023/07/09 03:28:45;;;;;;;14.95;13.52;;;15.80;81.60;;;;;;5050893;28;20037;-73
2023/07/09 03:31:11;;;;;;;17.40;13.48;;;15.80;81.20;;;;;;5050466;28;20507;-73
2023/07/09 03:33:37;;;;;;;14.23;12.85;;;15.90;80.10;;;;;;5051039;28;20033;-73
2023/07/09 03:36:04;;;;;;;14.23;13.00;;;15.90;80.70;;;;;;5050301;28;20065;-73
2023/07/09 03:38:30;;;;;;;14.00;12.85;;;15.80;81.40;;;;;;5050168;28;20726;-73
2023/07/09 03:40:56;;;;;;;14.63;13.27;;;15.80;81.10;;;;;;5050209;28;20040;-73
2023/07/09 03:43:22;;;;;;;14.65;12.98;;;15.80;81.60;;;;;;5050304;28;20455;-73
2023/07/09 03:45:49;;;;;;;14.57;13.38;;;15.90;80.10;;;;;;5050155;28;20032;-73
2023/07/09 03:48:16;;;;;;;13.88;12.43;;;15.90;80.20;;;;;;5050596;28;20029;-73
2023/07/09 03:50:44;;;;;;;14.93;13.60;;;15.90;80.20;;;;;;5051636;28;20044;-73
2023/07/09 03:53:10;;;;;;;14.65;13.45;;;16.00;79.70;;;;;;5050369;28;20084;-72
2023/07/09 03:55:37;;;;;;;15.18;13.65;;;16.00;79.40;;;;;;5050673;28;20036;-72
2023/07/09 03:58:03;;;;;;;17.40;13.45;;;16.10;79.10;;;;;;5050195;28;20037;-72
2023/07/09 04:00:29;;;;;;;14.23;12.95;;;16.10;79.30;;;;;;5050345;28;20032;-71
2023/07/09 04:02:56;;;;;;;13.35;12.40;;;16.10;80.00;;;;;;5049235;28;20132;-71
2023/07/09 04:05:23;;;;;;;13.82;12.60;;;16.10;80.40;;;;;;5050767;28;20111;-71
2023/07/09 04:07:49;;;;;;;14.20;12.85;;;16.10;80.20;;;;;;5033231;28;20064;-71
2023/07/09 04:10:15;;;;;;;13.77;12.68;;;16.10;81.00;;;;;;5051334;28;20072;-71
2023/07/09 04:12:41;;;;;;;14.35;13.05;;;16.20;81.50;;;;;;5051579;28;20064;-71
2023/07/09 04:15:07;;;;;;;14.50;13.18;;;16.00;80.90;;;;;;5048792;28;20025;-72
2023/07/09 04:17:34;;;;;;;14.63;13.23;;;16.00;81.10;;;;;;5050471;28;20033;-72
2023/07/09 04:19:59;;;;;;;14.45;12.95;;;16.00;81.60;;;;;;5050265;28;20040;-73
2023/07/09 04:22:25;;;;;;;14.40;13.10;;;16.10;81.70;;;;;;5052476;28;20037;-72
2023/07/09 04:24:52;;;;;;;15.32;13.85;;;16.20;81.60;;;;;;5049057;28;20044;-72
2023/07/09 04:27:18;;;;;;;26.58;23.75;;;16.20;81.90;;;;;;5050032;28;20854;-72
2023/07/09 04:29:44;;;;;;;25.15;22.77;;;16.30;81.90;;;;;;5049592;28;20053;-72
2023/07/09 04:32:15;;;;;;;17.38;15.38;;;16.40;82.10;;;;;;5048685;28;20129;-71
2023/07/09 04:34:41;;;;;;;15.50;14.30;;;16.50;80.80;;;;;;5050863;28;20048;-71
2023/07/09 04:37:09;;;;;;;15.75;14.23;;;16.70;79.50;;;;;;5050041;28;20032;-71
2023/07/09 04:39:35;;;;;;;15.05;14.00;;;16.80;78.50;;;;;;5047718;28;20041;-71
2023/07/09 04:42:01;;;;;;;15.20;13.55;;;16.90;77.70;;;;;;5049190;28;20020;-72
2023/07/09 04:44:28;;;;;;;14.32;13.23;;;16.90;77.30;;;;;;5040266;28;20032;-72
2023/07/09 04:46:53;;;;;;;15.27;14.00;;;17.00;77.20;;;;;;5056651;28;20059;-72
2023/07/09 04:49:19;;;;;;;15.48;14.25;;;17.00;77.60;;;;;;5050215;28;20573;-72
2023/07/09 04:51:45;;;;;;;16.00;14.52;;;17.00;77.60;;;;;;5031369;28;20415;-72
2023/07/09 04:54:11;;;;;;;14.60;13.43;;;17.10;77.40;;;;;;5049152;28;20478;-71
2023/07/09 04:56:37;;;;;;;15.95;14.75;;;17.20;77.40;;;;;;5049939;28;20025;-71
2023/07/09 04:59:03;;;;;;;15.98;14.63;;;17.30;77.00;;;;;;5048926;28;20021;-72
2023/07/09 05:01:28;;;;;;;15.05;13.88;;;17.50;76.70;;;;;;5049212;28;20043;-73
2023/07/09 05:03:55;;;;;;;15.85;14.52;;;17.50;76.50;;;;;;5052104;28;20387;-71
2023/07/09 05:06:21;;;;;;;15.85;14.50;;;17.60;76.00;;;;;;5049077;28;20039;-71
2023/07/09 05:08:48;;;;;;;15.35;14.25;;;17.80;76.20;;;;;;5048842;28;20037;-71
2023/07/09 05:11:15;;;;;;;16.42;14.40;;;17.90;75.80;;;;;;5049362;28;20047;-71
2023/07/09 05:13:41;;;;;;;15.63;14.25;;;17.90;74.70;;;;;;5048565;28;20109;-72
2023/07/09 05:16:07;;;;;;;15.15;13.95;;;18.00;74.60;;;;;;5048862;28;20107;-72
2023/07/09 05:18:32;;;;;;;14.98;13.80;;;18.20;74.30;;;;;;5048634;28;20111;-71
2023/07/09 05:20:58;;;;;;;15.35;14.02;;;18.30;74.20;;;;;;5048916;28;20068;-72
2023/07/09 05:23:26;;;;;;;15.30;14.00;;;18.40;74.20;;;;;;5048884;28;20083;-72
2023/07/09 05:26:00;;;;;;;15.30;13.95;;;18.50;74.30;;;;;;5049341;28;20075;-72
2023/07/09 05:28:26;;;;;;;15.32;14.23;;;18.70;74.50;;;;;;5048042;28;20025;-71
2023/07/09 05:30:51;;;;;;;15.63;14.35;;;18.80;74.00;;;;;;5048502;28;20403;-72
2023/07/09 05:33:18;;;;;;;16.48;15.27;;;19.00;74.10;;;;;;5049350;28;20076;-72
2023/07/09 05:35:44;;;;;;;15.18;13.82;;;19.10;73.10;;;;;;5046349;28;20798;-71
2023/07/09 05:38:10;;;;;;;15.10;13.98;;;19.20;72.90;;;;;;5048591;28;20115;-70
2023/07/09 05:40:35;;;;;;;16.27;14.98;;;19.30;72.70;;;;;;5048848;28;20040;-71
2023/07/09 05:43:01;;;;;;;14.80;13.75;;;19.40;72.40;;;;;;5048531;28;20491;-71
2023/07/09 05:45:27;;;;;;;14.68;13.65;;;19.50;72.20;;;;;;5052034;28;20040;-70
2023/07/09 05:47:52;;;;;;;15.20;14.10;;;19.60;71.10;;;;;;5055065;28;20032;-71
2023/07/09 05:50:18;;;;;;;18.52;14.93;;;19.70;71.40;;;;;;5055260;28;20029;-70
2023/07/09 05:52:43;;;;;;;14.60;13.50;;;19.80;70.60;;;;;;5054905;28;20502;-68
2023/07/09 05:55:09;;;;;;;14.63;13.43;;;19.90;69.20;;;;;;5055079;28;20493;-69
2023/07/09 05:57:35;;;;;;;15.02;13.93;;;20.00;68.80;;;;;;5055381;28;20689;-69
2023/07/09 06:00:01;;;;;;;13.93;13.02;;;20.10;69.00;;;;;;5054783;28;20036;-69
2023/07/09 06:02:26;;;;;;;15.05;13.95;;;20.10;68.60;;;;;;5056788;28;20032;-69
2023/07/09 06:04:52;;;;;;;14.98;13.77;;;20.20;68.60;;;;;;5054466;28;20033;-69
2023/07/09 06:07:21;;;;;;;15.32;14.18;;;20.40;68.40;;;;;;5053471;28;20391;-69
2023/07/09 06:09:47;;;;;;;16.42;15.23;;;20.50;67.70;;;;;;5037208;28;20547;-69
2023/07/09 06:12:13;;;;;;;15.57;14.45;;;20.70;67.30;;;;;;5055229;28;20033;-70
2023/07/09 06:14:39;;;;;;;16.13;14.90;;;20.70;68.00;;;;;;5054108;28;20031;-69
2023/07/09 06:17:05;;;;;;;15.88;14.40;;;20.90;67.40;;;;;;5055813;28;20033;-70
2023/07/09 06:19:31;;;;;;;14.25;12.95;;;21.10;66.30;;;;;;5037000;28;20475;-70
2023/07/09 06:21:56;;;;;;;14.50;13.45;;;21.20;68.70;;;;;;5055616;28;20035;-69
2023/07/09 06:24:23;;;;;;;15.30;14.02;;;21.30;67.80;;;;;;5054863;28;20075;-69
2023/07/09 06:26:49;;;;;;;17.48;16.20;;;21.40;66.30;;;;;;5056350;28;20100;-70
2023/07/09 06:29:15;;;;;;;15.55;14.48;;;21.60;64.30;;;;;;5054250;28;20476;-69
2023/07/09 06:31:42;;;;;;;15.75;14.75;;;21.70;63.80;;;;;;5035942;28;20060;-70
2023/07/09 06:34:09;;;;;;;15.68;14.57;;;21.80;63.20;;;;;;5054260;28;20025;-69
2023/07/09 06:36:35;;;;;;;17.83;16.73;;;22.00;63.80;;;;;;5036620;28;20456;-70
2023/07/09 06:39:01;;;;;;;15.73;14.57;;;22.20;63.90;;;;;;5054534;28;20380;-70
2023/07/09 06:41:27;;;;;;;15.77;14.68;;;22.30;61.90;;;;;;5053681;28;20040;-69
2023/07/09 06:43:53;;;;;;;16.67;15.63;;;22.40;62.40;;;;;;5054928;28;20033;-70
2023/07/09 06:46:20;;;;;;;16.80;15.63;;;22.50;61.40;;;;;;5055493;28;20029;-70
2023/07/09 06:48:46;;;;;;;17.48;16.17;;;22.60;61.30;;;;;;5055403;28;20075;-69
2023/07/09 06:51:12;;;;;;;17.98;16.65;;;22.80;60.50;;;;;;5054603;28;20029;-70
2023/07/09 06:53:39;;;;;;;17.33;16.02;;;22.90;59.20;;;;;;5056890;28;20033;-70
2023/07/09 06:56:05;;;;;;;19.85;18.65;;;22.90;59.80;;;;;;5062348;28;20024;-70
2023/07/09 06:58:33;;;;;;;20.23;18.83;;;23.10;59.50;;;;;;5056926;28;20094;-70
2023/07/09 07:01:03;;;;;;;21.00;19.70;;;23.30;58.90;;;;;;5057360;28;20052;-70
2023/07/09 07:03:29;;;;;;;;;;;23.40;59.00;;;;;;5053406;28;20454;-70
2023/07/09 07:05:54;;;;;;;19.13;18.02;;;23.40;58.00;;;;;;5054885;28;19919;-71
2023/07/09 07:08:22;;;;;;;18.45;17.35;;;23.60;56.40;;;;;;5051486;28;20095;-70
2023/07/09 07:10:50;;;;;;;18.45;17.23;;;23.80;57.00;;;;;;5052165;28;20368;-72
2023/07/09 07:13:16;;;;;;;22.52;21.23;;;23.90;55.70;;;;;;5032615;28;20431;-72
2023/07/09 07:15:44;;;;;;;21.38;20.17;;;24.00;54.80;;;;;;5051269;28;20029;-72
2023/07/09 07:18:10;;;;;;;18.83;17.73;;;24.20;55.20;;;;;;5050233;28;20025;-72
2023/07/09 07:20:36;;;;;;;21.35;20.15;;;24.40;56.90;;;;;;5050628;28;20147;-72
2023/07/09 07:23:01;;;;;;;26.88;25.50;;;24.50;56.00;;;;;;5048256;28;20045;-72
2023/07/09 07:25:27;;;;;;;24.13;22.90;;;24.60;53.50;;;;;;5046430;28;20033;-72
2023/07/09 07:27:53;;;;;;;26.83;25.20;;;24.70;54.60;;;;;;5050760;28;20037;-72
2023/07/09 07:30:19;;;;;;;25.15;23.55;;;24.80;51.10;;;;;;5048483;28;20065;-75
2023/07/09 07:32:47;;;;;;;23.60;22.40;;;25.00;51.90;;;;;;5067457;28;20486;-74
2023/07/09 07:35:13;;;;;;;28.50;26.92;;;25.20;50.50;;;;;;5050712;28;20035;-74
2023/07/09 07:37:42;;;;;;;129.88;124.93;;;25.30;53.00;;;;;;5050279;28;20545;-74
2023/07/09 07:40:09;;;;;;;43.90;41.65;;;25.30;49.00;;;;;;5048204;28;20061;-74
2023/07/09 07:42:35;;;;;;;96.03;92.15;;;25.50;51.70;;;;;;5048778;28;20491;-74
2023/07/09 07:45:02;;;;;;;98.10;94.15;;;25.60;50.80;;;;;;5048695;28;20044;-74
2023/07/09 07:47:27;;;;;;;44.80;42.67;;;25.60;48.60;;;;;;5034813;28;20044;-74
2023/07/09 07:49:54;;;;;;;120.07;115.47;;;25.80;51.10;;;;;;5033260;28;20042;-74
2023/07/09 07:52:20;;;;;;;128.15;123.07;;;25.90;49.50;;;;;;5049453;28;20029;-73
2023/07/09 07:54:46;;;;;;;95.55;91.80;;;26.10;50.40;;;;;;5050481;28;20029;-74
2023/07/09 07:57:12;;;;;;;107.85;103.63;;;26.10;46.90;;;;;;5050154;28;20035;-74
2023/07/09 07:59:38;;;;;;;137.05;131.82;;;26.30;49.60;;;;;;5050586;28;20029;-74
2023/07/09 08:02:06;;;;;;;159.68;153.68;;;26.30;48.20;;;;;;5050254;28;20087;-74
2023/07/09 08:04:32;;;;;;;186.55;179.73;;;26.40;45.90;;;;;;5047682;28;20112;-74
2023/07/09 08:06:58;;;;;;;164.85;158.60;;;26.60;46.10;;;;;;5049745;28;20109;-74
2023/07/09 08:09:25;;;;;;;223.48;215.38;;;26.70;45.40;;;;;;5048838;28;20061;-74
2023/07/09 08:11:51;;;;;;;272.58;262.50;;;26.80;45.00;;;;;;5046283;28;20737;-74
2023/07/09 08:14:16;;;;;;;345.67;332.30;;;26.90;43.50;;;;;;5046382;28;20471;-75
2023/07/09 08:16:42;;;;;;;167.02;160.93;;;27.10;44.10;;;;;;5049036;28;20033;-74
2023/07/09 08:19:08;;;;;;;291.95;281.20;;;27.30;45.60;;;;;;5031857;28;20059;-74
2023/07/09 08:21:34;;;;;;;370.48;356.05;;;27.40;44.50;;;;;;5049593;28;20052;-74
2023/07/09 08:23:59;;;;;;;253.77;243.90;;;27.50;43.60;;;;;;5050204;28;20510;-75
2023/07/09 08:26:25;;;;;;;382.90;367.73;;;27.60;44.60;;;;;;5049741;28;20048;-75
2023/07/09 08:28:51;;;;;;;235.65;226.68;;;27.80;42.40;;;;;;5051388;28;20037;-75
2023/07/09 08:31:17;;;;;;;427.83;410.15;;;28.10;46.20;;;;;;5029262;28;20081;-74
2023/07/09 08:33:43;;;;;;;400.65;384.52;;;28.50;41.60;;;;;;5013718;28;20052;-75
2023/07/09 08:36:09;;;;;;;475.30;455.08;;;28.30;42.60;;;;;;5029753;28;20029;-74
2023/07/09 08:38:35;;;;;;;584.58;557.22;;;28.40;41.30;;;;;;5031801;28;20033;-73
2023/07/09 08:41:02;;;;;;;553.70;528.20;;;28.50;40.90;;;;;;5035300;28;20033;-74
2023/07/09 08:44:05;;;;;;;495.38;473.92;;;28.90;40.60;;;;;;5010856;28;20098;-74
2023/07/09 08:46:59;;;;;;;515.67;493.30;;;28.90;41.40;;;;;;5032363;28;20030;-73
2023/07/09 08:49:45;;;;;;;649.00;616.80;;;29.30;40.80;;;;;;5031493;28;20075;-73
2023/07/09 08:52:23;;;;;;;1342.50;825.53;;;29.50;39.60;;;;;;5034636;28;20119;-73
2023/07/09 08:54:50;;;;;;;666.92;633.00;;;29.30;36.60;;;;;;5030892;28;20051;-74
2023/07/09 08:57:23;;;;;;;707.20;670.92;;;29.50;36.00;;;;;;5031658;28;20033;-74
2023/07/09 09:00:25;;;;;;;752.40;710.55;;;29.80;36.30;;;;;;5029224;28;20412;-74
2023/07/09 09:03:23;;;;;;;603.35;566.67;;;29.90;36.20;;;;;;5017558;28;20037;-74
2023/07/09 09:05:49;;;;;;;679.70;641.13;;;29.70;36.50;;;;;;5018637;28;20046;-74
2023/07/09 09:08:32;;;;;;;413.33;388.08;;;29.80;37.10;;;;;;5036067;28;20028;-74
2023/07/09 09:11:21;;;;;;;1999.90;999.90;;;30.00;37.70;;;;;;5031329;28;20029;-74
2023/07/09 09:13:50;;;;;;;1999.90;999.90;;;30.00;33.50;;;;;;5037852;28;20108;-73
2023/07/09 09:16:37;;;;;;;316.75;298.55;;;29.90;35.80;;;;;;5021182;28;20487;-74
2023/07/09 09:19:08;;;;;;;1999.90;999.90;;;30.40;37.20;;;;;;5029830;28;20033;-74
2023/07/09 09:21:37;;;;;;;1999.90;999.90;;;30.80;34.60;;;;;;5012971;28;20139;-74
2023/07/09 09:24:20;;;;;;;1539.57;786.83;;;30.70;31.00;;;;;;5032734;28;20030;-73
2023/07/09 09:26:48;;;;;;;1999.90;999.90;;;30.70;34.60;;;;;;5031792;28;20029;-73
2023/07/09 09:29:16;;;;;;;1999.90;999.90;;;30.60;31.80;;;;;;5033787;28;20049;-74
2023/07/09 09:31:45;;;;;;;1999.90;999.90;;;30.60;33.60;;;;;;5028897;28;20040;-74
2023/07/09 09:34:19;;;;;;;1999.90;999.90;;;31.00;32.80;;;;;;5028747;28;20037;-74
2023/07/09 09:36:45;;;;;;;1999.90;999.90;;;31.20;32.80;;;;;;5029592;28;20038;-74
2023/07/09 09:39:11;;;;;;;1999.90;999.90;;;31.60;31.40;;;;;;5035244;28;20032;-74
2023/07/09 09:41:37;;;;;;;1999.90;999.90;;;31.30;31.10;;;;;;5032956;28;20059;-74
2023/07/09 09:44:04;;;;;;;1999.90;999.90;;;31.30;30.80;;;;;;5030911;28;20029;-74
2023/07/09 09:46:32;;;;;;;1999.90;999.90;;;31.60;31.30;;;;;;5013398;28;20033;-74
2023/07/09 09:49:03;;;;;;;1999.90;999.90;;;31.70;32.50;;;;;;5010808;28;20085;-74
2023/07/09 09:51:29;;;;;;;1999.90;999.90;;;31.70;32.00;;;;;;5035140;28;20029;-74
2023/07/09 09:54:00;;;;;;;1999.90;999.90;;;31.50;29.30;;;;;;5032721;28;20029;-74
2023/07/09 09:56:34;;;;;;;1999.90;999.90;;;31.60;28.80;;;;;;5029549;28;20026;-74
2023/07/09 09:59:00;;;;;;;1999.90;999.90;;;31.90;29.60;;;;;;5033372;28;20044;-74
2023/07/09 10:01:31;;;;;;;1999.90;999.90;;;32.00;28.10;;;;;;5033371;28;20033;-72
2023/07/09 10:03:59;;;;;;;1999.90;999.90;;;31.70;28.40;;;;;;5035110;28;20033;-73
2023/07/09 10:06:37;;;;;;;1999.90;999.90;;;31.80;28.30;;;;;;5034118;28;20033;-73
2023/07/09 10:09:14;;;;;;;1999.90;999.90;;;31.90;29.90;;;;;;5029215;28;20116;-73
2023/07/09 10:12:07;;;;;;;1999.90;999.90;;;31.70;28.70;;;;;;5034151;28;20112;-73
2023/07/09 10:14:49;;;;;;;1999.90;999.90;;;32.00;28.00;;;;;;4994006;28;20042;-77
2023/07/09 10:17:22;;;;;;;1999.90;999.90;;;32.60;32.80;;;;;;5031261;28;20067;-76
2023/07/09 10:20:07;;;;;;;1999.90;999.90;;;32.70;30.50;;;;;;5034065;28;20029;-76
2023/07/09 10:23:23;;;;;;;1999.90;999.90;;;32.60;29.80;;;;;;5032880;28;20026;-76
2023/07/09 10:26:10;;;;;;;1999.90;999.90;;;32.60;28.90;;;;;;4973696;28;20030;-75
2023/07/09 10:28:59;;;;;;;1999.90;999.90;;;32.70;30.30;;;;;;5027534;28;20041;-77
2023/07/09 10:31:33;;;;;;;1999.90;999.90;;;32.80;29.00;;;;;;5034316;28;20040;-76
2023/07/09 10:33:59;;;;;;;1999.90;999.90;;;33.00;27.70;;;;;;5037983;28;20025;-76
2023/07/09 10:36:50;;;;;;;1999.90;999.90;;;33.10;28.80;;;;;;5032795;28;20037;-77
2023/07/09 10:39:22;;;;;;;1999.90;999.90;;;32.80;28.80;;;;;;5035863;28;20480;-76
2023/07/09 10:41:50;;;;;;;1999.90;999.90;;;33.10;28.80;;;;;;5034958;28;20036;-77
2023/07/09 10:44:27;;;;;;;1999.90;999.90;;;33.40;28.60;;;;;;5040324;28;20791;-77
2023/07/09 10:47:00;;;;;;;1999.90;999.90;;;33.50;27.30;;;;;;5035241;28;20511;-76
2023/07/09 10:49:33;;;;;;;1999.90;999.90;;;33.50;27.70;;;;;;5035651;28;20021;-76
2023/07/09 10:52:28;;;;;;;1999.90;999.90;;;33.70;29.20;;;;;;5018835;28;20034;-77
2023/07/09 10:54:57;;;;;;;1999.90;999.90;;;34.00;27.10;;;;;;5032753;28;20160;-76
2023/07/09 10:57:30;;;;;;;1999.90;999.90;;;33.30;26.30;;;;;;5035740;28;20404;-76
2023/07/09 10:59:57;;;;;;;1999.90;999.90;;;33.10;26.90;;;;;;5035179;28;20025;-76
2023/07/09 11:02:24;;;;;;;1999.90;999.90;;;33.40;27.50;;;;;;5034999;28;20124;-77
2023/07/09 11:04:58;;;;;;;1999.90;999.90;;;33.50;27.00;;;;;;5042354;28;20021;-77
2023/07/09 11:08:00;;;;;;;1999.90;999.90;;;33.70;26.90;;;;;;5034724;28;20045;-76
2023/07/09 11:10:31;;;;;;;1999.90;999.90;;;34.20;26.70;;;;;;5033096;28;20919;-76
2023/07/09 11:13:05;;;;;;;1999.90;999.90;;;34.60;26.90;;;;;;5032195;28;20027;-76
2023/07/09 11:15:36;;;;;;;1999.90;999.90;;;35.50;26.00;;;;;;5030438;28;20691;-77
2023/07/09 11:18:05;;;;;;;1999.90;999.90;;;35.50;24.30;;;;;;5033463;28;20052;-75
2023/07/09 11:20:35;;;;;;;1999.90;999.90;;;35.70;25.10;;;;;;5015035;28;20045;-77
2023/07/09 11:23:07;;;;;;;1999.90;999.90;;;35.80;26.30;;;;;;5016784;28;20125;-75
2023/07/09 11:25:46;;;;;;;1999.90;999.90;;;36.50;23.80;;;;;;5035013;28;20508;-76
2023/07/09 11:28:12;;;;;;;1999.90;999.90;;;35.70;25.40;;;;;;5033330;28;20491;-77
2023/07/09 11:30:52;;;;;;;1999.90;999.90;;;35.40;23.40;;;;;;5038839;28;20126;-76
2023/07/09 11:33:26;;;;;;;1999.90;999.90;;;36.10;24.80;;;;;;5033163;28;20107;-77
2023/07/09 11:36:06;;;;;;;1999.90;999.90;;;36.20;24.70;;;;;;5036029;28;20033;-77
2023/07/09 11:38:45;;;;;;;1999.90;999.90;;;36.10;25.10;;;;;;5034728;28;20021;-77
2023/07/09 11:41:46;;;;;;;1999.90;999.90;;;36.70;23.10;;;;;;5035737;28;20036;-77
2023/07/09 11:44:23;;;;;;;1999.90;999.90;;;36.60;23.60;;;;;;5035526;28;20082;-77
2023/07/09 11:47:15;;;;;;;1999.90;999.90;;;36.90;22.70;;;;;;5031916;28;20083;-77
2023/07/09 11:49:58;;;;;;;1999.90;999.90;;;36.50;23.80;;;;;;5036336;28;20026;-77
2023/07/09 11:53:10;;;;;;;1999.90;999.90;;;38.10;21.60;;;;;;5032068;28;20475;-77
2023/07/09 11:55:44;;;;;;;1999.90;999.90;;;37.90;20.40;;;;;;5011638;28;20040;-77
2023/07/09 11:58:14;;;;;;;1999.90;999.90;;;37.10;22.80;;;;;;5028556;28;20076;-77
2023/07/09 12:00:43;;;;;;;1999.90;999.90;;;37.70;22.80;;;;;;5031536;28;20046;-77
2023/07/09 12:03:17;;;;;;;1999.90;999.90;;;37.70;22.60;;;;;;5030481;28;20377;-77
2023/07/09 12:05:52;;;;;;;1999.90;999.90;;;36.70;22.10;;;;;;5030558;28;20045;-77
2023/07/09 12:08:24;;;;;;;1999.90;999.90;;;37.20;22.20;;;;;;5032132;28;20037;-77
2023/07/09 12:10:50;;;;;;;1999.90;999.90;;;37.80;21.50;;;;;;5001028;28;20036;-77
2023/07/09 12:13:16;;;;;;;1999.90;999.90;;;37.80;20.40;;;;;;5033370;28;20450;-77
2023/07/09 12:15:42;;;;;;;1999.90;999.90;;;38.20;20.70;;;;;;5034967;28;20104;-77
2023/07/09 12:18:13;;;;;;;1999.90;999.90;;;38.50;20.00;;;;;;5036098;28;20182;-76
2023/07/09 12:20:39;;;;;;;1999.90;999.90;;;38.70;20.40;;;;;;5035960;28;20040;-77
2023/07/09 12:23:32;;;;;;;1999.90;999.90;;;37.70;22.00;;;;;;5034763;28;20125;-77
2023/07/09 12:26:03;;;;;;;1999.90;999.90;;;39.10;21.30;;;;;;5028426;28;20119;-77
2023/07/09 12:28:30;;;;;;;1999.90;999.90;;;37.60;21.20;;;;;;5036371;28;20089;-77
2023/07/09 12:30:56;;;;;;;1999.90;999.90;;;37.20;21.10;;;;;;5029597;28;20037;-77